Time;durP1;ratioP1;P1;durP2;ratioP2;P2;SDS_P1;SDS_P2;PMS_P1;PMS_P2;Temp;Humidity;BMP_temperature;BMP_pressure;BME280_temperature;BME280_humidity;BME280_pressure;Samples;Min_cycle;Max_cycle;Signal;HPM_P1;HPM_P2
2023/05/26 00:01:11;;;;;;;21.80;6.40;;;;;;;;;;5066131;28;20552;-59
2023/05/26 00:03:38;;;;;;;20.53;5.50;;;;;;;;;;5065179;28;20451;-59
2023/05/26 00:06:04;;;;;;;25.70;5.37;;;;;;;;;;5067847;28;20488;-59
2023/05/26 00:08:31;;;;;;;14.50;5.97;;;;;;;;;;5069302;28;20509;-59
2023/05/26 00:10:57;;;;;;;17.30;4.47;;;;;;;;;;5068357;28;20555;-59
2023/05/26 00:13:23;;;;;;;16.23;5.20;;;;;;;;;;5065120;28;20468;-59
2023/05/26 00:15:51;;;;;;;23.03;5.30;;;;;;;;;;5068859;28;21232;-59
2023/05/26 00:18:19;;;;;;;23.90;5.77;;;;;;;;;;5067590;28;20485;-59
2023/05/26 00:20:46;;;;;;;24.87;5.97;;;;;;;;;;5063935;28;20480;-59
2023/05/26 00:23:12;;;;;;;24.00;5.90;;;;;;;;;;5064917;28;20448;-59
2023/05/26 00:25:38;;;;;;;20.20;5.70;;;;;;;;;;5066539;28;20503;-59
2023/05/26 00:28:05;;;;;;;16.80;5.53;;;;;;;;;;5062375;28;20460;-59
2023/05/26 00:30:31;;;;;;;24.80;5.97;;;;;;;;;;5066085;28;20500;-59
2023/05/26 00:32:59;;;;;;;22.33;6.53;;;;;;;;;;5064217;28;20488;-58
2023/05/26 00:35:25;;;;;;;18.07;5.57;;;;;;;;;;5067267;28;20537;-58
2023/05/26 00:37:52;;;;;;;35.53;7.47;;;;;;;;;;5066571;28;20488;-58
2023/05/26 00:40:18;;;;;;;20.17;5.70;;;;;;;;;;5061349;28;20579;-58
2023/05/26 00:42:45;;;;;;;17.10;4.90;;;;;;;;;;5062006;28;20485;-58
2023/05/26 00:45:11;;;;;;;23.40;6.30;;;;;;;;;;5067150;28;20487;-58
2023/05/26 00:47:38;;;;;;;26.70;5.57;;;;;;;;;;5067971;28;20754;-58
2023/05/26 00:50:06;;;;;;;21.27;6.03;;;;;;;;;;5064503;28;20891;-58
2023/05/26 00:52:33;;;;;;;15.80;4.83;;;;;;;;;;5061992;28;20496;-58
2023/05/26 00:55:00;;;;;;;17.10;5.70;;;;;;;;;;5055529;28;20473;-58
2023/05/26 00:57:27;;;;;;;20.83;5.97;;;;;;;;;;5065479;28;20578;-57
2023/05/26 00:59:54;;;;;;;22.30;5.27;;;;;;;;;;5066562;28;20492;-57
2023/05/26 01:02:22;;;;;;;20.80;6.23;;;;;;;;;;5069898;28;20624;-58
2023/05/26 01:04:52;;;;;;;20.83;4.83;;;;;;;;;;5073322;28;20457;-58
2023/05/26 01:07:20;;;;;;;24.30;8.00;;;;;;;;;;5061903;28;20480;-58
2023/05/26 01:09:47;;;;;;;21.37;6.17;;;;;;;;;;5070732;28;20478;-58
2023/05/26 01:12:15;;;;;;;21.70;5.20;;;;;;;;;;5071454;28;20569;-58
2023/05/26 01:14:44;;;;;;;18.63;5.13;;;;;;;;;;5067479;28;20892;-58
2023/05/26 01:17:13;;;;;;;23.43;5.20;;;;;;;;;;5060887;28;20510;-58
2023/05/26 01:19:54;;;;;;;20.70;5.37;;;;;;;;;;5060551;28;20448;-58
2023/05/26 01:22:28;;;;;;;23.60;5.37;;;;;;;;;;5059997;28;20473;-58
2023/05/26 01:25:01;;;;;;;18.00;5.70;;;;;;;;;;5057508;28;20492;-58
2023/05/26 01:27:40;;;;;;;23.13;5.77;;;;;;;;;;5065947;28;20480;-58
2023/05/26 01:30:09;;;;;;;23.73;5.57;;;;;;;;;;5067364;28;20554;-58
2023/05/26 01:32:36;;;;;;;21.60;5.63;;;;;;;;;;5061661;28;20531;-58
2023/05/26 01:35:02;;;;;;;21.43;6.40;;;;;;;;;;5067501;28;20591;-58
2023/05/26 01:37:29;;;;;;;17.03;5.07;;;;;;;;;;5060290;28;20519;-58
2023/05/26 01:39:55;;;;;;;20.87;6.60;;;;;;;;;;5069469;28;20521;-58
2023/05/26 01:42:23;;;;;;;25.40;6.03;;;;;;;;;;5071218;28;21040;-58
2023/05/26 01:44:52;;;;;;;16.30;4.30;;;;;;;;;;5067049;28;20546;-58
2023/05/26 01:47:20;;;;;;;18.03;5.87;;;;;;;;;;5064585;28;20527;-59
2023/05/26 01:49:47;;;;;;;23.80;6.20;;;;;;;;;;5068442;28;20462;-58
2023/05/26 01:52:16;;;;;;;17.33;5.87;;;;;;;;;;5065179;28;20508;-59
2023/05/26 01:54:45;;;;;;;18.50;6.27;;;;;;;;;;5063398;28;20459;-58
2023/05/26 01:57:11;;;;;;;20.90;5.43;;;;;;;;;;5068144;28;20560;-58
2023/05/26 01:59:38;;;;;;;27.30;6.73;;;;;;;;;;5071504;28;20540;-58
2023/05/26 02:02:04;;;;;;;15.43;5.30;;;;;;;;;;5068137;28;20579;-58
2023/05/26 02:04:32;;;;;;;20.33;6.33;;;;;;;;;;5066291;28;20469;-58
2023/05/26 02:07:02;;;;;;;22.73;6.50;;;;;;;;;;5066089;28;20491;-58
2023/05/26 02:09:28;;;;;;;36.87;7.00;;;;;;;;;;5068002;28;20498;-58
2023/05/26 02:11:55;;;;;;;20.30;5.40;;;;;;;;;;5061640;28;20492;-58
2023/05/26 02:14:21;;;;;;;30.57;7.03;;;;;;;;;;5070599;28;20971;-58
2023/05/26 02:16:48;;;;;;;28.20;5.90;;;;;;;;;;5066158;28;20579;-58
2023/05/26 02:19:14;;;;;;;16.77;4.80;;;;;;;;;;5069489;28;20449;-58
2023/05/26 02:21:42;;;;;;;18.60;5.60;;;;;;;;;;5072778;28;20477;-59
2023/05/26 02:24:08;;;;;;;14.53;5.00;;;;;;;;;;5065261;28;20869;-59
2023/05/26 02:26:35;;;;;;;28.80;7.23;;;;;;;;;;5061355;28;20541;-59
2023/05/26 02:29:01;;;;;;;19.53;5.70;;;;;;;;;;5067155;28;20527;-59
2023/05/26 02:31:28;;;;;;;25.80;5.40;;;;;;;;;;5069063;28;20542;-59
2023/05/26 02:33:55;;;;;;;21.50;7.17;;;;;;;;;;5059941;28;20496;-59
2023/05/26 02:36:21;;;;;;;20.03;6.20;;;;;;;;;;5077148;28;20488;-59
2023/05/26 02:38:49;;;;;;;18.27;5.67;;;;;;;;;;5071313;28;20453;-59
2023/05/26 02:41:15;;;;;;;20.23;5.43;;;;;;;;;;5065400;28;20626;-59
2023/05/26 02:43:42;;;;;;;24.17;6.17;;;;;;;;;;5066804;28;20965;-59
2023/05/26 02:46:08;;;;;;;24.50;5.93;;;;;;;;;;5066667;28;20570;-59
2023/05/26 02:48:35;;;;;;;26.30;6.53;;;;;;;;;;5068997;28;20493;-59
2023/05/26 02:51:01;;;;;;;17.50;5.40;;;;;;;;;;5067649;28;20485;-59
2023/05/26 02:53:28;;;;;;;22.93;5.57;;;;;;;;;;5060977;28;20464;-60
2023/05/26 02:55:56;;;;;;;20.27;7.00;;;;;;;;;;5073043;28;20496;-59
2023/05/26 02:58:23;;;;;;;23.20;6.73;;;;;;;;;;5065444;28;20463;-59
2023/05/26 03:00:50;;;;;;;25.63;6.37;;;;;;;;;;5071055;28;20527;-60
2023/05/26 03:03:16;;;;;;;21.23;5.50;;;;;;;;;;5065156;28;20515;-59
2023/05/26 03:05:43;;;;;;;19.67;5.80;;;;;;;;;;5069298;28;20475;-59
2023/05/26 03:08:09;;;;;;;23.30;7.00;;;;;;;;;;5061266;28;20540;-59
2023/05/26 03:10:39;;;;;;;23.73;5.90;;;;;;;;;;5063582;28;20464;-59
2023/05/26 03:13:06;;;;;;;23.23;7.60;;;;;;;;;;5068670;28;20448;-59
2023/05/26 03:15:44;;;;;;;20.33;5.53;;;;;;;;;;5069597;28;20543;-59
2023/05/26 03:18:11;;;;;;;24.50;6.23;;;;;;;;;;5065104;28;20476;-59
2023/05/26 03:20:37;;;;;;;24.23;6.57;;;;;;;;;;5070609;28;20590;-59
2023/05/26 03:23:04;;;;;;;23.33;6.90;;;;;;;;;;5065369;28;21092;-59
2023/05/26 03:25:30;;;;;;;27.00;6.23;;;;;;;;;;5061420;28;20479;-62
2023/05/26 03:27:56;;;;;;;23.50;6.37;;;;;;;;;;5062042;28;20545;-60
2023/05/26 03:30:24;;;;;;;26.17;6.23;;;;;;;;;;5061798;28;20456;-64
2023/05/26 03:32:50;;;;;;;22.13;6.33;;;;;;;;;;5064085;28;20559;-61
2023/05/26 03:35:17;;;;;;;26.53;7.10;;;;;;;;;;5061767;28;20496;-61
2023/05/26 03:37:43;;;;;;;29.63;6.70;;;;;;;;;;5061720;28;20501;-64
2023/05/26 03:40:10;;;;;;;27.00;6.37;;;;;;;;;;5058877;28;20513;-60
2023/05/26 03:42:36;;;;;;;25.40;5.90;;;;;;;;;;5062896;28;20560;-60
2023/05/26 03:45:03;;;;;;;28.30;6.37;;;;;;;;;;5062190;28;20517;-60
2023/05/26 03:47:30;;;;;;;15.30;5.80;;;;;;;;;;5060703;28;20924;-60
2023/05/26 03:49:57;;;;;;;24.10;6.83;;;;;;;;;;5060548;28;20532;-60
2023/05/26 03:52:23;;;;;;;26.13;6.57;;;;;;;;;;5065733;28;20638;-58
2023/05/26 03:54:49;;;;;;;26.40;6.50;;;;;;;;;;5061749;28;20472;-62
2023/05/26 03:57:16;;;;;;;32.80;7.93;;;;;;;;;;5068696;28;20555;-61
2023/05/26 03:59:42;;;;;;;25.70;6.10;;;;;;;;;;5061878;28;20445;-60
2023/05/26 04:02:09;;;;;;;23.17;7.27;;;;;;;;;;5060616;28;20949;-60
2023/05/26 04:04:37;;;;;;;17.53;6.30;;;;;;;;;;5066036;28;20444;-61
2023/05/26 04:07:04;;;;;;;26.07;6.07;;;;;;;;;;5055603;28;20518;-61
2023/05/26 04:09:31;;;;;;;24.90;6.13;;;;;;;;;;5066302;28;20455;-62
2023/05/26 04:11:57;;;;;;;26.97;6.43;;;;;;;;;;5064475;28;20567;-61
2023/05/26 04:14:24;;;;;;;20.93;6.07;;;;;;;;;;5063741;28;20467;-62
2023/05/26 04:16:50;;;;;;;27.17;5.70;;;;;;;;;;5060066;28;20551;-59
2023/05/26 04:19:16;;;;;;;23.87;5.53;;;;;;;;;;5061297;28;20560;-61
2023/05/26 04:21:54;;;;;;;29.43;6.03;;;;;;;;;;5060499;28;20468;-62
2023/05/26 04:24:20;;;;;;;16.47;5.20;;;;;;;;;;5057838;28;20476;-59
2023/05/26 04:26:47;;;;;;;22.10;5.30;;;;;;;;;;5058718;28;20476;-60
2023/05/26 04:29:13;;;;;;;27.33;6.60;;;;;;;;;;5061595;28;20460;-60
2023/05/26 04:31:40;;;;;;;19.97;6.33;;;;;;;;;;5066196;28;20507;-60
2023/05/26 04:34:07;;;;;;;16.10;5.40;;;;;;;;;;5061080;28;20489;-64
2023/05/26 04:36:38;;;;;;;20.13;6.40;;;;;;;;;;5061115;28;20480;-63
2023/05/26 04:39:06;;;;;;;21.80;5.83;;;;;;;;;;5062394;28;20452;-60
2023/05/26 04:41:33;;;;;;;21.17;6.30;;;;;;;;;;5060311;28;21027;-61
2023/05/26 04:44:00;;;;;;;13.93;5.50;;;;;;;;;;5065696;28;20480;-60
2023/05/26 04:46:28;;;;;;;22.70;5.00;;;;;;;;;;5055750;28;20511;-61
2023/05/26 04:48:56;;;;;;;17.40;5.40;;;;;;;;;;5067404;28;20463;-60
2023/05/26 04:51:22;;;;;;;23.13;6.83;;;;;;;;;;5064485;28;21019;-64
2023/05/26 04:53:49;;;;;;;17.80;5.17;;;;;;;;;;5054943;28;20451;-61
2023/05/26 04:56:16;;;;;;;15.67;5.50;;;;;;;;;;5054281;28;20591;-59
2023/05/26 04:58:43;;;;;;;23.70;5.90;;;;;;;;;;5051506;28;20487;-60
2023/05/26 05:01:09;;;;;;;19.37;6.23;;;;;;;;;;5067542;28;20504;-60
2023/05/26 05:03:36;;;;;;;22.03;6.70;;;;;;;;;;5061511;28;20513;-63
2023/05/26 05:06:02;;;;;;;15.03;4.80;;;;;;;;;;5061293;28;20571;-62
2023/05/26 05:08:29;;;;;;;19.13;6.00;;;;;;;;;;5060017;28;20508;-62
2023/05/26 05:10:56;;;;;;;15.83;5.50;;;;;;;;;;5067139;28;20537;-59
2023/05/26 05:13:23;;;;;;;23.43;6.23;;;;;;;;;;5059871;28;20516;-60
2023/05/26 05:15:50;;;;;;;24.70;6.63;;;;;;;;;;5063841;28;20560;-63
2023/05/26 05:18:16;;;;;;;15.50;4.47;;;;;;;;;;5066118;28;20524;-62
2023/05/26 05:20:43;;;;;;;16.13;5.20;;;;;;;;;;5058305;28;20492;-64
2023/05/26 05:23:09;;;;;;;26.77;6.43;;;;;;;;;;5067864;28;20543;-63
2023/05/26 05:25:36;;;;;;;24.27;5.40;;;;;;;;;;5061810;28;20579;-61
2023/05/26 05:28:02;;;;;;;22.93;5.10;;;;;;;;;;5061930;28;20537;-61
2023/05/26 05:30:30;;;;;;;22.10;5.13;;;;;;;;;;5057908;28;20489;-62
2023/05/26 05:32:56;;;;;;;14.73;4.60;;;;;;;;;;5061640;28;20519;-62
2023/05/26 05:35:23;;;;;;;15.53;5.13;;;;;;;;;;5062266;28;20502;-64
2023/05/26 05:37:49;;;;;;;21.93;6.23;;;;;;;;;;5061727;28;20480;-64
2023/05/26 05:40:16;;;;;;;19.87;5.10;;;;;;;;;;5063792;28;20585;-61
2023/05/26 05:42:42;;;;;;;13.93;4.30;;;;;;;;;;5060624;28;20564;-60
2023/05/26 05:45:09;;;;;;;16.93;5.53;;;;;;;;;;5057221;28;20481;-62
2023/05/26 05:47:36;;;;;;;14.43;4.93;;;;;;;;;;5061396;28;20487;-61
2023/05/26 05:50:03;;;;;;;19.73;6.37;;;;;;;;;;5063464;28;20468;-62
2023/05/26 05:52:29;;;;;;;17.03;5.20;;;;;;;;;;5059118;28;20477;-63
2023/05/26 05:54:57;;;;;;;16.97;4.30;;;;;;;;;;5056649;28;20551;-62
2023/05/26 05:57:23;;;;;;;17.73;4.67;;;;;;;;;;5057899;28;20482;-60
2023/05/26 05:59:49;;;;;;;14.90;4.70;;;;;;;;;;5063460;28;20531;-62
2023/05/26 06:02:16;;;;;;;13.50;4.40;;;;;;;;;;5061095;28;20492;-63
2023/05/26 06:04:44;;;;;;;14.13;5.13;;;;;;;;;;5061715;28;20539;-63
2023/05/26 06:07:10;;;;;;;19.33;6.93;;;;;;;;;;5059452;28;20575;-61
2023/05/26 06:09:36;;;;;;;15.80;4.87;;;;;;;;;;5063698;28;20528;-62
2023/05/26 06:12:03;;;;;;;12.53;3.90;;;;;;;;;;5062060;28;20492;-63
2023/05/26 06:14:29;;;;;;;25.83;5.97;;;;;;;;;;5063513;28;20540;-62
2023/05/26 06:16:56;;;;;;;15.83;4.67;;;;;;;;;;5062432;28;20476;-63
2023/05/26 06:19:22;;;;;;;16.63;4.33;;;;;;;;;;5059744;28;20536;-63
2023/05/26 06:21:51;;;;;;;13.77;4.97;;;;;;;;;;5055034;28;20548;-64
2023/05/26 06:24:17;;;;;;;12.77;5.13;;;;;;;;;;5062677;28;20955;-61
2023/05/26 06:26:43;;;;;;;19.60;5.30;;;;;;;;;;5061590;28;20523;-62
2023/05/26 06:29:10;;;;;;;19.40;5.07;;;;;;;;;;5063506;28;20525;-62
2023/05/26 06:31:36;;;;;;;15.87;4.53;;;;;;;;;;5062175;28;20549;-63
2023/05/26 06:34:03;;;;;;;14.40;4.60;;;;;;;;;;5062489;28;20519;-63
2023/05/26 06:36:29;;;;;;;17.90;5.60;;;;;;;;;;5061209;28;20504;-62
2023/05/26 06:38:57;;;;;;;17.47;5.07;;;;;;;;;;5058918;28;20512;-61
2023/05/26 06:41:23;;;;;;;20.30;5.03;;;;;;;;;;5062248;28;20519;-63
2023/05/26 06:43:50;;;;;;;19.40;5.13;;;;;;;;;;5063363;28;20472;-63
2023/05/26 06:46:16;;;;;;;18.07;5.83;;;;;;;;;;5061907;28;20576;-61
2023/05/26 06:48:43;;;;;;;14.03;5.40;;;;;;;;;;5061967;28;21359;-63
2023/05/26 06:51:09;;;;;;;22.07;5.53;;;;;;;;;;5062282;28;20477;-61
2023/05/26 06:53:37;;;;;;;17.80;5.93;;;;;;;;;;5054856;28;20990;-63
2023/05/26 06:56:05;;;;;;;15.43;5.50;;;;;;;;;;5058386;28;20480;-62
2023/05/26 06:58:31;;;;;;;17.43;5.77;;;;;;;;;;5061597;28;20457;-63
2023/05/26 07:00:58;;;;;;;19.63;5.80;;;;;;;;;;5062308;28;20548;-64
2023/05/26 07:03:26;;;;;;;16.70;5.43;;;;;;;;;;5061517;28;20903;-63
2023/05/26 07:05:52;;;;;;;14.03;4.80;;;;;;;;;;5062084;28;20469;-62
2023/05/26 07:08:18;;;;;;;17.13;4.87;;;;;;;;;;5062131;28;20500;-64
2023/05/26 07:10:45;;;;;;;22.87;7.23;;;;;;;;;;5060960;28;20581;-62
2023/05/26 07:13:13;;;;;;;15.27;5.70;;;;;;;;;;5062618;28;20532;-62
2023/05/26 07:15:40;;;;;;;16.67;5.10;;;;;;;;;;5054698;28;20544;-62
2023/05/26 07:18:06;;;;;;;23.77;5.27;;;;;;;;;;5049387;28;20501;-63
2023/05/26 07:20:32;;;;;;;16.63;5.33;;;;;;;;;;5061856;28;20461;-61
2023/05/26 07:22:59;;;;;;;21.07;5.93;;;;;;;;;;5061939;28;20488;-63
2023/05/26 07:25:25;;;;;;;12.97;4.90;;;;;;;;;;5060180;28;20531;-59
2023/05/26 07:27:51;;;;;;;12.80;5.40;;;;;;;;;;5061835;28;20456;-63
2023/05/26 07:30:19;;;;;;;21.70;6.07;;;;;;;;;;5061277;28;20488;-63
2023/05/26 07:32:46;;;;;;;19.57;6.30;;;;;;;;;;5060944;28;20892;-64
2023/05/26 07:35:12;;;;;;;19.20;5.93;;;;;;;;;;5048823;28;20499;-63
2023/05/26 07:37:40;;;;;;;14.10;5.33;;;;;;;;;;5061164;28;20453;-60
2023/05/26 07:40:07;;;;;;;15.80;5.10;;;;;;;;;;5071134;28;20453;-64
2023/05/26 07:42:34;;;;;;;14.17;5.47;;;;;;;;;;5059019;28;20480;-63
2023/05/26 07:45:01;;;;;;;24.37;5.87;;;;;;;;;;5061957;28;20456;-64
2023/05/26 07:47:31;;;;;;;22.23;6.60;;;;;;;;;;5056613;28;20491;-62
2023/05/26 07:49:57;;;;;;;22.13;5.80;;;;;;;;;;5060546;28;20517;-62
2023/05/26 07:52:34;;;;;;;20.50;5.63;;;;;;;;;;5057756;28;20513;-61
2023/05/26 07:55:00;;;;;;;12.77;4.60;;;;;;;;;;5059373;28;20506;-62
2023/05/26 07:57:27;;;;;;;16.90;5.07;;;;;;;;;;5060722;28;20560;-59
2023/05/26 07:59:53;;;;;;;18.80;5.80;;;;;;;;;;5061316;28;20472;-64
2023/05/26 08:02:20;;;;;;;18.43;5.60;;;;;;;;;;5060105;28;21014;-62
2023/05/26 08:04:48;;;;;;;22.20;6.07;;;;;;;;;;5068634;28;20444;-62
2023/05/26 08:07:14;;;;;;;14.50;5.37;;;;;;;;;;5065049;28;20918;-62
2023/05/26 08:09:41;;;;;;;16.03;5.00;;;;;;;;;;5066235;28;20480;-62
2023/05/26 08:12:07;;;;;;;20.70;5.80;;;;;;;;;;5065580;28;20476;-62
2023/05/26 08:14:34;;;;;;;16.30;5.30;;;;;;;;;;5060791;28;20448;-61
2023/05/26 08:17:00;;;;;;;24.50;5.80;;;;;;;;;;5059985;28;20548;-61
2023/05/26 08:19:27;;;;;;;20.90;6.07;;;;;;;;;;5060337;28;20444;-63
2023/05/26 08:21:55;;;;;;;17.00;5.63;;;;;;;;;;5059919;28;20492;-63
2023/05/26 08:24:22;;;;;;;14.03;4.70;;;;;;;;;;5060213;28;20768;-60
2023/05/26 08:26:49;;;;;;;21.40;5.47;;;;;;;;;;5052898;28;20574;-65
2023/05/26 08:29:15;;;;;;;18.57;5.90;;;;;;;;;;5061023;28;20544;-61
2023/05/26 08:31:42;;;;;;;25.30;6.80;;;;;;;;;;5059263;28;20504;-61
2023/05/26 08:34:08;;;;;;;19.07;5.03;;;;;;;;;;5060371;28;20520;-62
2023/05/26 08:36:35;;;;;;;15.20;5.10;;;;;;;;;;5059963;28;20484;-59
2023/05/26 08:39:03;;;;;;;14.73;5.00;;;;;;;;;;5058132;28;20548;-62
2023/05/26 08:41:33;;;;;;;15.07;5.20;;;;;;;;;;5062396;28;20509;-62
2023/05/26 08:44:01;;;;;;;13.97;4.90;;;;;;;;;;5048139;28;20508;-63
2023/05/26 08:46:27;;;;;;;19.13;6.10;;;;;;;;;;5059414;28;20547;-63
2023/05/26 08:48:54;;;;;;;18.23;6.10;;;;;;;;;;5057341;28;20481;-61
2023/05/26 08:51:21;;;;;;;16.00;5.80;;;;;;;;;;5058536;28;21024;-63
2023/05/26 08:53:48;;;;;;;15.53;5.40;;;;;;;;;;5053273;28;20869;-62
2023/05/26 08:56:16;;;;;;;13.90;5.97;;;;;;;;;;5066397;28;20504;-61
2023/05/26 08:58:43;;;;;;;16.50;5.30;;;;;;;;;;5060174;28;20551;-62
2023/05/26 09:01:10;;;;;;;16.60;5.10;;;;;;;;;;5059331;28;20496;-60
2023/05/26 09:03:36;;;;;;;17.57;4.80;;;;;;;;;;5061989;28;20926;-60
2023/05/26 09:06:03;;;;;;;17.00;6.37;;;;;;;;;;5060208;28;20465;-60
2023/05/26 09:08:30;;;;;;;16.90;6.00;;;;;;;;;;5057612;28;20449;-63
2023/05/26 09:10:56;;;;;;;17.50;6.10;;;;;;;;;;5054655;28;20481;-63
2023/05/26 09:13:24;;;;;;;15.80;6.30;;;;;;;;;;5058306;28;20532;-62
2023/05/26 09:15:51;;;;;;;17.50;5.43;;;;;;;;;;5059897;28;20929;-62
2023/05/26 09:18:18;;;;;;;13.40;5.57;;;;;;;;;;5059425;28;20456;-61
2023/05/26 09:20:46;;;;;;;11.60;4.60;;;;;;;;;;5060007;28;21084;-61
2023/05/26 09:23:13;;;;;;;16.37;5.33;;;;;;;;;;5059868;28;20499;-63
2023/05/26 09:25:41;;;;;;;10.90;4.77;;;;;;;;;;5056755;28;20496;-64
2023/05/26 09:28:08;;;;;;;16.77;5.90;;;;;;;;;;5059282;28;20460;-62
2023/05/26 09:30:37;;;;;;;16.77;4.57;;;;;;;;;;5054173;28;20495;-63
2023/05/26 09:33:04;;;;;;;13.93;4.47;;;;;;;;;;5058639;28;20452;-62
2023/05/26 09:35:34;;;;;;;13.90;4.33;;;;;;;;;;5059976;28;21047;-63
2023/05/26 09:38:02;;;;;;;12.93;4.80;;;;;;;;;;5059841;28;21024;-61
2023/05/26 09:40:29;;;;;;;15.00;5.27;;;;;;;;;;5058999;28;20528;-63
2023/05/26 09:42:55;;;;;;;14.83;4.10;;;;;;;;;;5060570;28;20518;-63
2023/05/26 09:45:22;;;;;;;12.37;4.10;;;;;;;;;;5059765;28;20908;-63
2023/05/26 09:47:53;;;;;;;13.13;4.10;;;;;;;;;;5056389;28;20542;-61
2023/05/26 09:50:20;;;;;;;17.77;5.20;;;;;;;;;;5059583;28;20445;-63
2023/05/26 09:52:49;;;;;;;11.13;4.43;;;;;;;;;;5060186;28;20459;-64
2023/05/26 09:55:16;;;;;;;12.07;5.00;;;;;;;;;;5057328;28;20455;-64
2023/05/26 09:57:44;;;;;;;19.33;5.43;;;;;;;;;;5060000;28;20559;-61
2023/05/26 10:00:12;;;;;;;14.53;4.73;;;;;;;;;;5062643;28;20453;-63
2023/05/26 10:02:40;;;;;;;13.57;5.23;;;;;;;;;;5057990;28;20862;-60
2023/05/26 10:05:08;;;;;;;17.73;5.53;;;;;;;;;;5058658;28;20556;-59
2023/05/26 10:07:35;;;;;;;17.33;5.67;;;;;;;;;;5050593;28;20485;-60
2023/05/26 10:10:02;;;;;;;19.90;6.27;;;;;;;;;;5057010;28;20880;-62
2023/05/26 10:12:30;;;;;;;17.23;5.00;;;;;;;;;;5060617;28;20544;-63
2023/05/26 10:14:56;;;;;;;10.30;4.30;;;;;;;;;;5061721;28;20480;-62
2023/05/26 10:17:23;;;;;;;11.47;4.30;;;;;;;;;;5061710;28;20560;-62
2023/05/26 10:19:50;;;;;;;11.07;4.97;;;;;;;;;;5063859;28;20441;-60
2023/05/26 10:22:21;;;;;;;10.40;3.50;;;;;;;;;;5062412;28;20472;-59
2023/05/26 10:24:51;;;;;;;14.37;4.10;;;;;;;;;;5062322;28;20543;-62
2023/05/26 10:27:20;;;;;;;12.00;4.50;;;;;;;;;;5062294;28;20799;-61
2023/05/26 10:29:49;;;;;;;17.77;5.10;;;;;;;;;;5062963;28;20582;-63
2023/05/26 10:32:39;;;;;;;14.10;4.93;;;;;;;;;;5061139;28;20518;-61
2023/05/26 10:35:19;;;;;;;13.57;4.20;;;;;;;;;;5047148;28;20513;-61
2023/05/26 10:37:49;;;;;;;13.30;4.20;;;;;;;;;;5053098;28;20503;-61
2023/05/26 10:40:25;;;;;;;13.87;4.70;;;;;;;;;;5062277;28;20445;-62
2023/05/26 10:42:51;;;;;;;15.87;4.63;;;;;;;;;;5062926;28;20522;-62
2023/05/26 10:45:19;;;;;;;12.40;4.40;;;;;;;;;;5061861;28;20544;-63
2023/05/26 10:47:47;;;;;;;12.33;4.60;;;;;;;;;;5062805;28;20467;-62
2023/05/26 10:50:13;;;;;;;12.60;5.03;;;;;;;;;;5062147;28;20468;-61
2023/05/26 10:52:48;;;;;;;13.30;4.33;;;;;;;;;;5068086;28;20445;-63
2023/05/26 10:55:28;;;;;;;9.57;4.30;;;;;;;;;;5054675;28;20985;-62
2023/05/26 10:57:55;;;;;;;10.57;4.60;;;;;;;;;;5057487;28;21261;-62
2023/05/26 11:00:21;;;;;;;12.30;3.90;;;;;;;;;;5061207;28;21022;-63
2023/05/26 11:02:48;;;;;;;16.03;4.60;;;;;;;;;;5062074;28;20544;-62
2023/05/26 11:05:29;;;;;;;11.23;4.70;;;;;;;;;;5054035;28;20473;-63
2023/05/26 11:07:57;;;;;;;13.50;4.77;;;;;;;;;;5059509;28;20520;-61
2023/05/26 11:10:23;;;;;;;16.17;4.30;;;;;;;;;;5057638;28;20479;-61
2023/05/26 11:12:54;;;;;;;9.37;3.77;;;;;;;;;;5062413;28;20509;-60
2023/05/26 11:15:27;;;;;;;13.23;4.50;;;;;;;;;;5061663;28;20441;-65
2023/05/26 11:17:55;;;;;;;7.73;3.70;;;;;;;;;;5059549;28;20480;-60
2023/05/26 11:20:22;;;;;;;11.20;4.83;;;;;;;;;;5067046;28;20449;-62
2023/05/26 11:22:48;;;;;;;12.03;4.67;;;;;;;;;;5058239;28;20548;-62
2023/05/26 11:25:16;;;;;;;11.37;4.17;;;;;;;;;;5060474;28;20919;-61
2023/05/26 11:27:45;;;;;;;14.43;4.97;;;;;;;;;;5058094;28;20559;-60
2023/05/26 11:30:12;;;;;;;12.50;3.90;;;;;;;;;;5060811;28;20470;-61
2023/05/26 11:32:44;;;;;;;18.33;4.83;;;;;;;;;;5061568;28;20488;-63
2023/05/26 11:35:20;;;;;;;14.43;4.90;;;;;;;;;;5060948;28;20519;-61
2023/05/26 11:37:47;;;;;;;13.10;4.77;;;;;;;;;;5061053;28;20568;-61
2023/05/26 11:40:14;;;;;;;18.47;5.03;;;;;;;;;;5061233;28;20453;-61
2023/05/26 11:42:44;;;;;;;10.87;4.80;;;;;;;;;;5061698;28;20462;-62
2023/05/26 11:45:11;;;;;;;10.57;4.23;;;;;;;;;;5058223;28;20540;-60
2023/05/26 11:47:37;;;;;;;22.90;5.73;;;;;;;;;;5061386;28;20449;-61
2023/05/26 11:50:07;;;;;;;13.00;3.97;;;;;;;;;;5061799;28;20449;-63
2023/05/26 11:52:33;;;;;;;15.17;5.23;;;;;;;;;;5059718;28;20538;-61
2023/05/26 11:54:59;;;;;;;10.73;4.07;;;;;;;;;;5068507;28;20524;-61
2023/05/26 11:57:30;;;;;;;14.20;4.60;;;;;;;;;;5061101;28;20514;-64
2023/05/26 11:59:58;;;;;;;18.03;4.97;;;;;;;;;;5060885;28;20453;-62
2023/05/26 12:02:25;;;;;;;19.27;5.00;;;;;;;;;;5059939;28;20538;-61
2023/05/26 12:04:51;;;;;;;14.53;6.07;;;;;;;;;;5061605;28;20499;-62
2023/05/26 12:07:24;;;;;;;13.83;4.37;;;;;;;;;;5059861;28;20549;-65
2023/05/26 12:10:02;;;;;;;13.93;5.03;;;;;;;;;;5052241;28;20480;-64
2023/05/26 12:12:32;;;;;;;11.13;4.03;;;;;;;;;;5061999;28;20476;-62
2023/05/26 12:15:05;;;;;;;14.60;4.47;;;;;;;;;;5058507;28;20449;-61
2023/05/26 12:17:31;;;;;;;13.23;5.20;;;;;;;;;;5058899;28;20465;-63
2023/05/26 12:19:58;;;;;;;18.90;5.83;;;;;;;;;;5068489;28;20472;-63
2023/05/26 12:22:27;;;;;;;13.97;6.20;;;;;;;;;;5059900;28;20571;-62
2023/05/26 12:24:58;;;;;;;15.67;5.80;;;;;;;;;;5060114;28;20877;-64
2023/05/26 12:27:34;;;;;;;12.27;5.90;;;;;;;;;;5054006;28;20491;-61
2023/05/26 12:30:01;;;;;;;19.30;6.27;;;;;;;;;;5060413;28;20457;-62
2023/05/26 12:32:28;;;;;;;17.23;5.63;;;;;;;;;;5059516;28;20473;-63
2023/05/26 12:34:55;;;;;;;21.53;5.97;;;;;;;;;;5058125;28;20541;-62
2023/05/26 12:37:22;;;;;;;14.10;5.90;;;;;;;;;;5058793;28;20576;-61
2023/05/26 12:39:48;;;;;;;20.90;6.80;;;;;;;;;;5060685;28;20909;-61
2023/05/26 12:42:14;;;;;;;17.90;7.10;;;;;;;;;;5058339;28;20492;-60
2023/05/26 12:44:41;;;;;;;11.53;6.70;;;;;;;;;;5068937;28;20483;-60
2023/05/26 12:47:07;;;;;;;12.80;6.70;;;;;;;;;;5057569;28;20552;-63
2023/05/26 12:49:35;;;;;;;12.63;6.93;;;;;;;;;;5062225;28;20897;-63
2023/05/26 12:52:02;;;;;;;14.17;7.40;;;;;;;;;;5057280;28;20511;-61
2023/05/26 12:54:28;;;;;;;12.67;6.90;;;;;;;;;;5059700;28;20475;-62
2023/05/26 12:56:55;;;;;;;14.77;6.90;;;;;;;;;;5059910;28;20483;-61
2023/05/26 12:59:21;;;;;;;13.97;7.40;;;;;;;;;;5059901;28;20477;-60
2023/05/26 13:01:47;;;;;;;16.37;7.00;;;;;;;;;;5059421;28;20495;-61
2023/05/26 13:04:14;;;;;;;18.57;7.13;;;;;;;;;;5060614;28;20499;-60
2023/05/26 13:06:42;;;;;;;17.40;6.97;;;;;;;;;;5059036;28;21009;-59
2023/05/26 13:09:09;;;;;;;11.27;5.93;;;;;;;;;;5061102;28;20463;-60
2023/05/26 13:11:36;;;;;;;12.73;6.60;;;;;;;;;;5059937;28;20599;-60
2023/05/26 13:14:02;;;;;;;18.10;7.00;;;;;;;;;;5060200;28;20441;-60
2023/05/26 13:16:29;;;;;;;18.87;6.90;;;;;;;;;;5059952;28;20989;-59
2023/05/26 13:18:55;;;;;;;17.00;6.17;;;;;;;;;;5060024;28;20452;-60
2023/05/26 13:21:21;;;;;;;10.10;6.50;;;;;;;;;;5059415;28;20476;-60
2023/05/26 13:23:51;;;;;;;15.70;5.90;;;;;;;;;;5060784;28;20607;-60
2023/05/26 13:26:17;;;;;;;15.23;6.37;;;;;;;;;;5059254;28;20481;-60
2023/05/26 13:28:43;;;;;;;16.03;5.60;;;;;;;;;;5059831;28;20673;-59
2023/05/26 13:31:10;;;;;;;12.50;5.33;;;;;;;;;;5059665;28;20909;-60
2023/05/26 13:33:36;;;;;;;13.10;4.90;;;;;;;;;;5061986;28;20548;-59
2023/05/26 13:36:03;;;;;;;10.53;5.20;;;;;;;;;;5059572;28;20500;-60
2023/05/26 13:38:30;;;;;;;13.23;5.43;;;;;;;;;;5061088;28;20500;-60
2023/05/26 13:40:58;;;;;;;9.80;4.90;;;;;;;;;;5065668;28;20563;-59
2023/05/26 13:43:24;;;;;;;9.67;4.77;;;;;;;;;;5064077;28;20461;-59
2023/05/26 13:45:51;;;;;;;14.87;6.10;;;;;;;;;;5060460;28;20476;-59
2023/05/26 13:48:17;;;;;;;11.57;5.27;;;;;;;;;;5060244;28;20471;-59
2023/05/26 13:50:44;;;;;;;17.03;4.67;;;;;;;;;;5076470;28;20559;-60
2023/05/26 13:53:10;;;;;;;13.73;5.00;;;;;;;;;;5062194;28;20465;-60
2023/05/26 13:55:37;;;;;;;14.73;5.07;;;;;;;;;;5061934;28;20488;-60
2023/05/26 13:58:05;;;;;;;17.67;5.10;;;;;;;;;;5063910;28;20473;-60
2023/05/26 14:00:31;;;;;;;14.63;5.57;;;;;;;;;;5061223;28;20510;-60
2023/05/26 14:02:58;;;;;;;15.13;5.10;;;;;;;;;;5061348;28;20516;-60
2023/05/26 14:05:24;;;;;;;10.30;4.20;;;;;;;;;;5060325;28;20831;-61
2023/05/26 14:07:50;;;;;;;10.40;4.23;;;;;;;;;;5064179;28;20457;-61
2023/05/26 14:10:17;;;;;;;10.80;4.40;;;;;;;;;;5060847;28;20508;-61
2023/05/26 14:12:43;;;;;;;12.10;4.23;;;;;;;;;;5063250;28;21067;-59
2023/05/26 14:15:11;;;;;;;16.20;5.50;;;;;;;;;;5062181;28;20468;-59
2023/05/26 14:17:38;;;;;;;8.80;4.03;;;;;;;;;;5066250;28;20488;-60
2023/05/26 14:20:05;;;;;;;13.73;3.83;;;;;;;;;;5062710;28;20487;-60
2023/05/26 14:22:31;;;;;;;16.37;4.60;;;;;;;;;;5066000;28;20537;-59
2023/05/26 14:24:58;;;;;;;14.57;4.07;;;;;;;;;;5067026;28;21048;-59
2023/05/26 14:27:24;;;;;;;10.50;4.30;;;;;;;;;;5061497;28;20477;-60
2023/05/26 14:29:51;;;;;;;10.30;3.77;;;;;;;;;;5062636;28;20479;-58
2023/05/26 14:32:18;;;;;;;8.90;4.10;;;;;;;;;;5061616;28;20568;-59